createdAt,value
2023-06-23T00:00:42.508Z,13.83
2023-06-23T00:05:41.734Z,14.12
2023-06-23T00:10:38.963Z,14.12
2023-06-23T00:15:38.187Z,13.53
2023-06-23T00:20:37.422Z,14.12
2023-06-23T00:25:37.695Z,14.68
2023-06-23T00:30:37.927Z,14.12
2023-06-23T00:35:35.130Z,14.68
2023-06-23T00:40:38.849Z,14.12
2023-06-23T00:45:35.411Z,14.12
2023-06-23T00:50:57.424Z,14.68
2023-06-23T00:55:33.902Z,14.68
2023-06-23T01:00:33.812Z,14.40
2023-06-23T01:05:34.391Z,14.46
2023-06-23T01:10:32.279Z,14.75
2023-06-23T01:15:32.530Z,14.12
2023-06-23T01:20:39.722Z,14.75
2023-06-23T01:25:37.705Z,14.46
2023-06-23T01:30:39.545Z,14.46
2023-06-23T01:35:29.528Z,14.46
2023-06-23T01:40:50.617Z,14.46
2023-06-23T01:45:36.413Z,14.16
2023-06-23T01:50:25.412Z,14.46
2023-06-23T01:55:29.820Z,14.46
2023-06-23T02:00:24.114Z,14.46
2023-06-23T02:05:22.236Z,14.46
2023-06-23T02:10:24.960Z,14.46
2023-06-23T02:15:20.765Z,14.46
2023-06-23T02:20:21.032Z,14.75
2023-06-23T02:25:22.220Z,14.16
2023-06-23T02:30:21.548Z,14.46
2023-06-23T02:35:17.521Z,14.16
2023-06-23T02:40:38.374Z,14.16
2023-06-23T02:45:21.070Z,14.16
2023-06-23T02:50:25.447Z,14.16
2023-06-23T02:55:36.192Z,14.46
2023-06-23T03:00:22.188Z,14.16
2023-06-23T03:05:12.904Z,14.46
2023-06-23T03:10:14.869Z,14.16
2023-06-23T03:15:14.341Z,14.16
2023-06-23T03:20:10.677Z,14.16
2023-06-23T03:25:13.296Z,14.46
2023-06-23T03:30:11.653Z,14.46
2023-06-23T03:35:08.386Z,14.46
2023-06-23T03:40:08.520Z,14.16
2023-06-23T03:45:13.017Z,14.46
2023-06-23T03:50:09.668Z,14.75
2023-06-23T03:55:07.226Z,15.04
2023-06-23T04:00:06.377Z,14.12
2023-06-23T04:05:04.591Z,14.68
2023-06-23T14:09:54.296Z,13.81
2023-06-23T14:14:51.517Z,13.48
2023-06-23T14:19:51.754Z,13.48
2023-06-23T14:24:52.028Z,13.48
2023-06-23T14:29:51.247Z,13.48
2023-06-23T14:34:50.502Z,13.48
2023-06-23T14:39:49.728Z,13.48
2023-06-23T14:44:48.956Z,13.14
2023-06-23T14:49:47.198Z,13.48
2023-06-23T14:54:46.462Z,13.48
2023-06-23T14:59:45.725Z,13.48
2023-06-23T15:04:44.968Z,14.39
2023-06-23T15:09:45.175Z,14.39
2023-06-23T15:14:43.430Z,14.05
2023-06-23T15:19:43.669Z,14.05
2023-06-23T15:24:42.893Z,13.14
2023-06-23T15:29:42.130Z,13.14
2023-06-23T15:34:40.393Z,14.39
2023-06-23T15:39:39.629Z,14.05
2023-06-23T15:44:38.864Z,14.05
2023-06-23T15:49:39.076Z,14.39
2023-06-23T15:54:37.393Z,14.39
2023-06-23T15:59:36.637Z,14.05
2023-06-23T16:04:35.930Z,14.05
2023-06-23T16:09:35.164Z,14.05
2023-06-23T16:14:34.431Z,14.05
2023-06-23T16:19:33.695Z,14.05
2023-06-23T16:24:32.980Z,14.05
2023-06-23T16:29:32.248Z,14.05
2023-06-23T16:34:33.496Z,14.05
2023-06-23T16:39:31.754Z,14.05
2023-06-23T16:44:30.020Z,14.05
2023-06-23T16:49:29.284Z,14.05
2023-06-23T16:54:28.600Z,14.05
2023-06-23T16:59:28.884Z,13.70
2023-06-23T17:04:27.141Z,13.35
2023-06-23T17:09:26.436Z,13.35
2023-06-23T17:14:26.650Z,13.35
2023-06-23T17:19:25.890Z,13.35
2023-06-23T17:24:24.106Z,13.35
2023-06-23T17:29:23.381Z,13.70
2023-06-23T17:34:22.679Z,13.70
2023-06-23T17:39:22.957Z,12.57
2023-06-23T17:44:22.238Z,14.14
2023-06-23T17:49:21.481Z,14.46
2023-06-23T17:54:19.760Z,14.16
2023-06-23T17:59:20.066Z,14.46
2023-06-23T18:04:18.374Z,14.16
2023-06-23T18:09:17.709Z,12.93
2023-06-23T18:14:19.069Z,14.16
2023-06-23T18:19:19.365Z,14.75
2023-06-23T18:24:15.476Z,14.95
2023-06-23T18:29:15.811Z,14.29
2023-06-23T18:34:14.099Z,13.24
2023-06-23T18:39:14.366Z,13.83
2023-06-23T18:44:13.781Z,12.93
2023-06-23T18:49:13.820Z,13.53
2023-06-23T18:54:13.096Z,14.12
2023-06-23T18:59:10.319Z,13.75
2023-06-23T19:04:10.688Z,13.75
2023-06-23T19:09:08.755Z,14.02
2023-06-23T19:14:08.021Z,14.29
2023-06-23T19:19:07.316Z,14.81
2023-06-23T19:24:07.613Z,14.55
2023-06-23T19:29:05.891Z,14.55
2023-06-23T19:34:06.183Z,14.55
2023-06-23T19:39:04.526Z,14.29
2023-06-23T19:44:03.765Z,13.88
2023-06-23T19:49:04.053Z,14.13
2023-06-23T19:54:03.345Z,13.62
2023-06-23T19:59:02.656Z,13.88
2023-06-23T20:04:01.919Z,12.68
2023-06-23T20:09:00.200Z,11.88
2023-06-23T20:14:00.476Z,11.61
2023-06-23T20:18:59.747Z,12.82
2023-06-23T20:24:00.955Z,13.62
2023-06-23T20:28:57.205Z,13.88
2023-06-23T20:33:57.457Z,13.44
2023-06-23T20:38:55.720Z,13.44
2023-06-23T20:43:54.989Z,13.19
2023-06-23T20:48:56.219Z,13.68
2023-06-23T20:53:53.514Z,14.17
2023-06-23T20:58:53.727Z,13.45
2023-06-23T21:03:53.019Z,13.93
2023-06-23T21:08:52.303Z,13.93
2023-06-23T21:13:50.573Z,12.98
2023-06-23T21:18:49.875Z,13.22
2023-06-23T21:23:49.137Z,13.45
2023-06-23T21:28:48.411Z,13.45
2023-06-23T21:33:49.685Z,13.68
2023-06-23T21:38:48.989Z,13.18
2023-06-23T21:43:47.211Z,13.40
2023-06-23T21:48:45.453Z,13.45
2023-06-23T21:53:46.693Z,12.50
2023-06-23T21:58:44.898Z,12.50
2023-06-23T22:03:43.207Z,11.79
2023-06-23T22:08:44.471Z,11.79
2023-06-23T22:13:41.710Z,12.50
2023-06-23T22:18:49.485Z,12.03
2023-06-23T22:23:40.103Z,12.27
2023-06-23T22:28:39.386Z,12.27
2023-06-23T22:33:38.634Z,12.27
2023-06-23T22:38:38.950Z,12.50
2023-06-23T22:43:37.179Z,12.50
2023-06-23T22:48:37.409Z,12.73
2023-06-23T22:53:35.658Z,12.73
2023-06-23T22:58:35.914Z,12.22
2023-06-23T23:03:34.301Z,12.00
2023-06-23T23:08:34.435Z,12.27
2023-06-23T23:13:32.676Z,12.73
2023-06-23T23:18:31.923Z,12.50
2023-06-23T23:23:31.217Z,11.78
2023-06-23T23:28:31.519Z,12.22
2023-06-23T23:33:30.828Z,12.00
2023-06-23T23:38:31.082Z,12.00
2023-06-23T23:43:29.301Z,11.49
2023-06-23T23:48:27.552Z,12.00
2023-06-23T23:53:25.740Z,12.00
2023-06-23T23:58:26.054Z,12.22
